Time;durP1;ratioP1;P1;durP2;ratioP2;P2;SDS_P1;SDS_P2;PMS_P1;PMS_P2;Temp;Humidity;BMP_temperature;BMP_pressure;BME280_temperature;BME280_humidity;BME280_pressure;Samples;Min_cycle;Max_cycle;Signal;HPM_P1;HPM_P2
2022/03/02 00:02:30;;;;;;;;;;;;;;;-139.48;100.00;61774.03;5016258;28;20044;-74
2022/03/02 00:05:14;;;;;;;23.13;11.67;;;;;;;-139.48;100.00;61774.03;5001341;28;19979;-74
2022/03/02 00:07:58;;;;;;;21.02;11.68;;;;;;;-139.48;100.00;61774.03;5014830;28;20041;-74
2022/03/02 00:10:42;;;;;;;16.52;10.57;;;;;;;-139.48;100.00;61774.03;5015744;28;20060;-74
2022/03/02 00:13:26;;;;;;;19.52;10.77;;;;;;;-139.48;100.00;61774.03;5015505;28;20108;-74
2022/03/02 00:16:11;;;;;;;17.88;11.27;;;;;;;-139.48;100.00;61774.03;5015754;28;20500;-74
2022/03/02 00:18:56;;;;;;;22.10;11.50;;;;;;;-139.48;100.00;61774.03;5000701;28;20060;-74
2022/03/02 00:21:40;;;;;;;19.67;11.27;;;;;;;-139.48;100.00;61774.03;5014374;28;20045;-74
2022/03/02 00:24:24;;;;;;;18.92;10.30;;;;;;;-139.48;100.00;61774.03;5015356;28;20366;-74
2022/03/02 00:27:08;;;;;;;24.60;10.18;;;;;;;-139.48;100.00;61774.03;5015289;28;20048;-74
2022/03/02 00:29:52;;;;;;;17.25;10.43;;;;;;;-139.48;100.00;61774.03;5014478;28;20081;-74
2022/03/02 00:32:37;;;;;;;20.85;11.15;;;;;;;-139.48;100.00;61774.03;5000449;28;20060;-74
2022/03/02 00:35:21;;;;;;;17.58;10.77;;;;;;;-139.48;100.00;61774.03;5014317;28;20049;-74
2022/03/02 00:38:07;;;;;;;18.65;10.82;;;;;;;-139.48;100.00;61774.03;5015139;28;20453;-73
2022/03/02 00:40:52;;;;;;;17.70;10.27;;;;;;;-139.48;100.00;61774.03;5015223;28;20113;-74
2022/03/02 00:43:36;;;;;;;19.23;11.75;;;;;;;-139.48;100.00;61774.03;5014866;28;20065;-73
2022/03/02 00:46:20;;;;;;;25.75;10.80;;;;;;;-139.48;100.00;61774.03;5015041;28;20517;-73
2022/03/02 00:49:04;;;;;;;21.60;11.25;;;;;;;-139.48;100.00;61774.03;5013920;28;20187;-74
2022/03/02 00:51:48;;;;;;;18.45;11.02;;;;;;;-139.48;100.00;61774.03;5014974;28;20057;-75
2022/03/02 00:54:32;;;;;;;18.52;11.55;;;;;;;-139.48;100.00;61774.03;5014838;28;20414;-74
2022/03/02 00:57:16;;;;;;;20.90;11.25;;;;;;;-139.48;100.00;61774.03;5015013;28;20401;-74
2022/03/02 01:00:00;;;;;;;22.58;12.25;;;;;;;-139.48;100.00;61774.03;5014864;28;20413;-74
2022/03/02 01:02:46;;;;;;;19.63;11.57;;;;;;;-139.48;100.00;61774.03;5013589;28;20088;-74
2022/03/02 01:05:30;;;;;;;18.73;11.10;;;;;;;-139.48;100.00;61774.03;5013624;28;20052;-74
2022/03/02 01:08:13;;;;;;;21.70;12.32;;;;;;;-139.48;100.00;61774.03;5014761;28;20056;-74
2022/03/02 01:10:57;;;;;;;23.95;12.40;;;;;;;-139.48;100.00;61774.03;5014416;28;20429;-74
2022/03/02 01:13:41;;;;;;;22.35;11.93;;;;;;;-139.48;100.00;61774.03;5013292;28;20048;-73
2022/03/02 01:16:25;;;;;;;19.75;11.55;;;;;;;-139.48;100.00;61774.03;4999398;28;20100;-74
2022/03/02 01:19:09;;;;;;;21.83;11.60;;;;;;;-139.48;100.00;61774.03;5013274;28;20095;-73
2022/03/02 01:21:53;;;;;;;;;;;;;;;-139.48;100.00;61774.03;5014565;28;20061;-74
2022/03/02 01:24:37;;;;;;;19.58;10.30;;;;;;;-139.48;100.00;61774.03;5013463;28;20450;-74
2022/03/02 01:27:21;;;;;;;;;;;;;;;-139.48;100.00;61774.03;5014387;28;20132;-74
2022/03/02 01:30:07;;;;;;;20.77;12.10;;;;;;;-139.48;100.00;61774.03;5013324;28;20004;-74
2022/03/02 01:32:51;;;;;;;22.20;11.45;;;;;;;-139.48;100.00;61774.03;5014124;28;20068;-74
2022/03/02 01:35:34;;;;;;;21.92;11.43;;;;;;;-139.48;100.00;61774.03;5013281;28;20077;-74
2022/03/02 01:38:18;;;;;;;;;;;;;;;-139.48;100.00;61774.03;5013891;28;20152;-74
2022/03/02 01:41:04;;;;;;;19.13;11.17;;;;;;;-139.48;100.00;61774.03;5013127;28;19920;-73
2022/03/02 01:43:50;;;;;;;19.70;10.48;;;;;;;-139.48;100.00;61774.03;5012786;28;20461;-72
2022/03/02 01:46:34;;;;;;;20.90;10.65;;;;;;;-139.48;100.00;61774.03;5012708;28;20107;-73
2022/03/02 01:49:18;;;;;;;20.08;11.68;;;;;;;-139.48;100.00;61774.03;5012936;28;20061;-73
2022/03/02 01:52:02;;;;;;;23.50;11.40;;;;;;;-139.48;100.00;61774.03;5012843;28;20053;-73
2022/03/02 01:54:46;;;;;;;26.38;11.45;;;;;;;-139.48;100.00;61774.03;5013665;28;20541;-73
2022/03/02 01:57:30;;;;;;;;;;;;;;;-139.48;100.00;61774.03;5012989;28;20049;-73
2022/03/02 02:00:21;;;;;;;19.02;10.70;;;;;;;-139.48;100.00;61774.03;5013684;28;20012;-73
2022/03/02 02:03:04;;;;;;;18.13;10.35;;;;;;;-139.48;100.00;61774.03;4998690;28;20126;-73
2022/03/02 02:05:49;;;;;;;20.55;10.50;;;;;;;-139.48;100.00;61774.03;5013648;28;20463;-73
2022/03/02 02:08:33;;;;;;;17.90;10.40;;;;;;;-139.48;100.00;61774.03;5012736;28;20108;-73
2022/03/02 02:11:17;;;;;;;19.10;10.50;;;;;;;-139.48;100.00;61774.03;5013515;28;20175;-73
2022/03/02 02:14:01;;;;;;;20.13;10.80;;;;;;;-139.48;100.00;61774.03;5012343;28;20176;-73
2022/03/02 02:16:45;;;;;;;18.35;10.57;;;;;;;-139.48;100.00;61774.03;5042323;23;20183;-73
2022/03/02 02:19:29;;;;;;;21.52;10.60;;;;;;;-139.48;100.00;61774.03;5033225;28;20095;-74
2022/03/02 02:22:12;;;;;;;17.25;10.95;;;;;;;-139.48;100.00;61774.03;5033247;28;20064;-73
2022/03/02 02:24:56;;;;;;;19.42;10.13;;;;;;;-139.48;100.00;61774.03;5032154;28;20404;-73
2022/03/02 02:27:44;;;;;;;20.83;10.50;;;;;;;-139.48;100.00;61774.03;5032974;28;20056;-74
2022/03/02 02:30:29;;;;;;;18.15;10.57;;;;;;;-139.48;100.00;61774.03;5031904;28;20145;-73
2022/03/02 02:33:14;;;;;;;20.52;10.70;;;;;;;-139.48;100.00;61774.03;5031772;28;20044;-73
2022/03/02 02:35:58;;;;;;;20.58;11.05;;;;;;;-139.48;100.00;61774.03;5032967;28;20048;-73
2022/03/02 02:38:41;;;;;;;;;;;;;;;-139.48;100.00;61774.03;5032155;28;20052;-73
2022/03/02 02:41:25;;;;;;;20.98;11.10;;;;;;;-139.48;100.00;61774.03;5031976;28;20422;-73
2022/03/02 02:44:09;;;;;;;18.05;11.57;;;;;;;-139.48;100.00;61774.03;5031909;28;20091;-73
2022/03/02 02:46:53;;;;;;;18.20;11.07;;;;;;;-139.48;100.00;61774.03;5031692;28;20571;-73
2022/03/02 02:49:37;;;;;;;19.65;11.50;;;;;;;-139.48;100.00;61774.03;5032619;28;20083;-73
2022/03/02 02:52:21;;;;;;;24.15;11.18;;;;;;;-139.48;100.00;61774.03;5031565;28;20048;-73
2022/03/02 02:55:09;;;;;;;19.73;10.70;;;;;;;-139.48;100.00;61774.03;5017670;28;20628;-73
2022/03/02 02:57:55;;;;;;;24.67;10.95;;;;;;;-139.48;100.00;61774.03;5032790;28;20049;-73
2022/03/02 03:00:42;;;;;;;25.08;10.05;;;;;;;-139.48;100.00;61774.03;5031753;28;20518;-73
2022/03/02 03:03:26;;;;;;;17.02;10.25;;;;;;;-139.48;100.00;61774.03;5031676;28;20048;-73
2022/03/02 03:06:10;;;;;;;21.50;11.75;;;;;;;-139.48;100.00;61774.03;5032333;28;20103;-73
2022/03/02 03:08:54;;;;;;;20.20;10.57;;;;;;;-139.48;100.00;61774.03;5017784;28;20072;-73
2022/03/02 03:11:39;;;;;;;19.50;10.07;;;;;;;-139.48;100.00;61774.03;5032714;28;20057;-73
2022/03/02 03:14:23;;;;;;;20.30;11.88;;;;;;;-139.48;100.00;61774.03;5031374;28;20052;-73
2022/03/02 03:17:07;;;;;;;19.48;10.90;;;;;;;-139.48;100.00;61774.03;5032261;28;20472;-73
2022/03/02 03:19:51;;;;;;;19.35;10.35;;;;;;;-139.48;100.00;61774.03;5031763;28;20511;-73
2022/03/02 03:22:35;;;;;;;17.17;10.10;;;;;;;-139.48;100.00;61774.03;5032459;28;20520;-73
2022/03/02 03:25:19;;;;;;;;;;;;;;;-139.48;100.00;61774.03;5031673;28;20067;-73
2022/03/02 03:28:04;;;;;;;20.83;10.45;;;;;;;-139.48;100.00;61774.03;5032310;28;19947;-73
2022/03/02 03:30:48;;;;;;;18.15;10.82;;;;;;;-139.48;100.00;61774.03;5032509;28;20520;-73
2022/03/02 03:33:31;;;;;;;;;;;;;;;-139.48;100.00;61774.03;5031532;28;20048;-73
2022/03/02 03:36:15;;;;;;;20.33;10.50;;;;;;;-139.48;100.00;61774.03;5032403;28;19951;-73
2022/03/02 03:38:59;;;;;;;17.92;10.40;;;;;;;-139.48;100.00;61774.03;5032431;28;20072;-73
2022/03/02 03:41:43;;;;;;;;;;;;;;;-139.48;100.00;61774.03;5017888;28;20416;-73
2022/03/02 03:44:27;;;;;;;19.58;11.27;;;;;;;-139.48;100.00;61774.03;5031423;28;20296;-73
2022/03/02 03:47:11;;;;;;;;;;;;;;;-139.48;100.00;61774.03;5031399;28;20103;-73
2022/03/02 03:49:55;;;;;;;20.33;11.23;;;;;;;-139.48;100.00;61774.03;5033549;28;19951;-73
2022/03/02 03:52:39;;;;;;;;;;;;;;;-139.48;100.00;61774.03;5036575;28;20184;-73
2022/03/02 03:55:23;;;;;;;19.88;10.35;;;;;;;-139.48;100.00;61774.03;5035923;28;20423;-73
2022/03/02 03:58:07;;;;;;;;;;;;;;;-139.48;100.00;61774.03;5035051;28;20088;-73
2022/03/02 04:00:51;;;;;;;20.50;10.73;;;;;;;-139.48;100.00;61774.03;5034743;28;20069;-73
2022/03/02 04:03:35;;;;;;;;;;;;;;;-139.48;100.00;61774.03;5035171;28;20044;-73
2022/03/02 04:06:19;;;;;;;19.67;10.45;;;;;;;-139.48;100.00;61774.03;5034470;28;19971;-72
2022/03/02 04:09:04;;;;;;;17.23;9.70;;;;;;;-139.48;100.00;61774.03;5034647;28;20087;-73
2022/03/02 04:11:47;;;;;;;;;;;;;;;-139.48;100.00;61774.03;5034996;28;20099;-73
2022/03/02 04:14:31;;;;;;;22.80;10.88;;;;;;;-139.48;100.00;61774.03;5035372;28;19959;-73
2022/03/02 04:17:15;;;;;;;;;;;;;;;-139.48;100.00;61774.03;5020549;28;20045;-73
2022/03/02 04:19:59;;;;;;;21.23;10.75;;;;;;;-139.48;100.00;61774.03;5034177;28;19924;-73
2022/03/02 04:22:43;;;;;;;22.23;10.85;;;;;;;-139.48;100.00;61774.03;5035418;28;20070;-73
2022/03/02 04:25:27;;;;;;;;;;;;;;;-139.48;100.00;61774.03;5035914;28;20103;-73
2022/03/02 04:28:11;;;;;;;20.00;10.68;;;;;;;-139.48;100.00;61774.03;5019919;28;19967;-73
2022/03/02 04:30:55;;;;;;;;;;;;;;;-139.48;100.00;61774.03;5034637;28;20119;-73
2022/03/02 04:33:39;;;;;;;23.10;10.07;;;;;;;-139.48;100.00;61774.03;5034230;28;19923;-73
2022/03/02 04:36:25;;;;;;;18.35;10.32;;;;;;;-139.48;100.00;61774.03;5020122;28;20091;-73
2022/03/02 04:39:08;;;;;;;23.08;11.68;;;;;;;-139.48;100.00;61774.03;5034895;28;20055;-73
2022/03/02 04:41:52;;;;;;;;;;;;;;;-139.48;100.00;61774.03;5034526;28;20504;-73
2022/03/02 04:44:36;;;;;;;24.42;11.73;;;;;;;-139.48;100.00;61774.03;5034967;28;20431;-73
2022/03/02 04:47:20;;;;;;;;;;;;;;;-139.48;100.00;61774.03;5034107;28;20523;-73
2022/03/02 04:50:06;;;;;;;23.75;11.52;;;;;;;-139.48;100.00;61774.03;5034690;28;19927;-73
2022/03/02 04:52:51;;;;;;;19.90;11.07;;;;;;;-139.48;100.00;61774.03;5034646;28;20509;-72
2022/03/02 04:55:35;;;;;;;25.67;12.30;;;;;;;-139.48;100.00;61774.03;5033599;28;20098;-73
2022/03/02 04:58:19;;;;;;;;;;;;;;;-139.48;100.00;61774.03;5034638;28;20048;-73
2022/03/02 05:01:03;;;;;;;21.98;11.02;;;;;;;-139.48;100.00;61774.03;5032353;28;19970;-72
2022/03/02 05:03:48;;;;;;;19.92;11.10;;;;;;;-139.48;100.00;61774.03;5034274;28;20053;-73
2022/03/02 05:06:32;;;;;;;;;;;;;;;-139.48;100.00;61774.03;5034963;28;20068;-73
2022/03/02 05:09:16;;;;;;;14.95;8.30;;;;;;;-139.48;100.00;61774.03;5034595;28;19920;-72
2022/03/02 05:12:02;;;;;;;;;;;;;;;-139.48;100.00;61774.03;5033693;28;20441;-73
2022/03/02 05:14:47;;;;;;;20.30;10.02;;;;;;;-139.48;100.00;61774.03;5033423;28;19966;-73
2022/03/02 05:17:31;;;;;;;21.92;11.57;;;;;;;-139.48;100.00;61774.03;5034036;28;20121;-72
2022/03/02 05:20:16;;;;;;;22.48;12.60;;;;;;;-139.48;100.00;61774.03;5019366;28;20140;-73
2022/03/02 05:23:01;;;;;;;24.52;12.35;;;;;;;-139.48;100.00;61774.03;5034319;28;20067;-73
2022/03/02 05:25:45;;;;;;;24.42;12.68;;;;;;;-139.48;100.00;61774.03;5034583;28;20573;-73
2022/03/02 05:28:29;;;;;;;23.17;11.73;;;;;;;-139.48;100.00;61774.03;5032989;28;20559;-73
2022/03/02 05:31:13;;;;;;;21.10;11.23;;;;;;;-139.48;100.00;61774.03;5019124;28;20505;-73
2022/03/02 05:33:57;;;;;;;24.23;11.93;;;;;;;-139.48;100.00;61774.03;5033130;28;20053;-73
2022/03/02 05:36:41;;;;;;;;;;;;;;;-139.48;100.00;61774.03;5034371;28;20048;-73
2022/03/02 05:39:25;;;;;;;23.63;11.52;;;;;;;-139.48;100.00;61774.03;5034116;28;19924;-73
2022/03/02 05:42:09;;;;;;;19.35;11.05;;;;;;;-139.48;100.00;61774.03;5032658;28;20052;-72
2022/03/02 05:44:53;;;;;;;21.70;11.05;;;;;;;-139.48;100.00;61774.03;5032773;28;20095;-73
2022/03/02 05:47:38;;;;;;;21.25;11.90;;;;;;;-139.48;100.00;61774.03;5032565;28;20072;-73
2022/03/02 05:50:22;;;;;;;21.48;10.82;;;;;;;-139.48;100.00;61774.03;5032770;28;20519;-73
2022/03/02 05:53:06;;;;;;;;;;;;;;;-139.48;100.00;61774.03;5018893;28;20052;-73
2022/03/02 05:55:50;;;;;;;18.60;10.10;;;;;;;-139.48;100.00;61774.03;5033444;28;19955;-73
2022/03/02 05:58:34;;;;;;;19.52;10.85;;;;;;;-139.48;100.00;61774.03;5033685;28;20106;-72
2022/03/02 06:01:19;;;;;;;;;;;;;;;-139.48;100.00;61774.03;5033896;28;20088;-72
2022/03/02 06:04:04;;;;;;;18.20;10.57;;;;;;;-139.48;100.00;61774.03;5018649;28;19919;-72
2022/03/02 06:06:48;;;;;;;19.27;10.38;;;;;;;-139.48;100.00;61774.03;5032085;28;20633;-73
2022/03/02 06:09:32;;;;;;;19.67;11.07;;;;;;;-139.48;100.00;61774.03;5033300;28;20052;-73
2022/03/02 06:12:17;;;;;;;21.67;11.05;;;;;;;-139.48;100.00;61774.03;5033100;28;20044;-73
2022/03/02 06:15:01;;;;;;;19.77;11.50;;;;;;;-139.48;100.00;61774.03;5033689;28;20086;-73
2022/03/02 06:17:45;;;;;;;21.63;11.40;;;;;;;-139.48;100.00;61774.03;5018054;28;20102;-73
2022/03/02 06:20:30;;;;;;;18.33;11.02;;;;;;;-139.48;100.00;61774.03;5032321;28;20053;-73
2022/03/02 06:23:14;;;;;;;19.42;10.85;;;;;;;-139.48;100.00;61774.03;5032023;28;20552;-73
2022/03/02 06:25:58;;;;;;;20.65;11.18;;;;;;;-139.48;100.00;61774.03;5032106;28;20087;-73
2022/03/02 06:28:42;;;;;;;19.38;10.63;;;;;;;-139.48;100.00;61774.03;5018129;28;20056;-73
2022/03/02 06:31:26;;;;;;;18.90;10.40;;;;;;;-139.48;100.00;61774.03;5032079;28;20128;-73
2022/03/02 06:34:10;;;;;;;20.88;10.63;;;;;;;-139.48;100.00;61774.03;5032856;28;20060;-73
2022/03/02 06:36:54;;;;;;;29.25;11.93;;;;;;;-139.48;100.00;61774.03;5031958;28;20623;-73
2022/03/02 06:39:38;;;;;;;;;;;;;;;-139.48;100.00;61774.03;5033312;28;20528;-74
2022/03/02 06:42:24;;;;;;;23.20;12.47;;;;;;;-139.48;100.00;61774.03;5031686;28;19920;-73
2022/03/02 06:45:13;;;;;;;20.45;11.50;;;;;;;-139.48;100.00;61774.03;5018100;28;20270;-73
2022/03/02 06:48:07;;;;;;;22.40;12.45;;;;;;;-139.48;100.00;61774.03;5032535;28;20091;-73
2022/03/02 06:50:53;;;;;;;21.95;11.48;;;;;;;-139.48;100.00;61774.03;5018218;28;20048;-73
2022/03/02 06:53:37;;;;;;;27.55;13.77;;;;;;;-139.48;100.00;61774.03;5031607;28;20160;-73
2022/03/02 06:56:21;;;;;;;19.73;10.82;;;;;;;-139.48;100.00;61774.03;5031701;28;20091;-72
2022/03/02 06:59:10;;;;;;;21.10;11.35;;;;;;;-139.48;100.00;61774.03;5031794;28;20107;-73
2022/03/02 07:01:59;;;;;;;20.85;11.52;;;;;;;-139.48;100.00;61774.03;5017712;28;20440;-73
2022/03/02 07:04:43;;;;;;;19.13;10.98;;;;;;;-139.48;100.00;61774.03;5031789;28;20060;-73
2022/03/02 07:07:27;;;;;;;21.90;11.77;;;;;;;-139.48;100.00;61774.03;5031629;28;20088;-74
2022/03/02 07:10:12;;;;;;;22.65;11.50;;;;;;;-139.48;100.00;61774.03;5031678;28;20091;-73
2022/03/02 07:12:56;;;;;;;21.90;11.85;;;;;;;-139.48;100.00;61774.03;5017681;28;20525;-73
2022/03/02 07:15:40;;;;;;;19.98;11.85;;;;;;;-139.48;100.00;61774.03;5031436;28;20567;-73
2022/03/02 07:18:24;;;;;;;23.70;13.27;;;;;;;-139.48;100.00;61774.03;5031440;28;20086;-74
2022/03/02 07:21:11;;;;;;;24.50;13.23;;;;;;;-139.48;100.00;61774.03;5032877;28;20060;-73
2022/03/02 07:24:00;;;;;;;21.55;11.30;;;;;;;-139.48;100.00;61774.03;5032536;28;20068;-73
2022/03/02 07:26:46;;;;;;;20.83;12.23;;;;;;;-139.48;100.00;61774.03;5035294;28;20048;-73
2022/03/02 07:29:34;;;;;;;21.10;12.00;;;;;;;-139.48;100.00;61774.03;5036320;28;20060;-74
2022/03/02 07:32:23;;;;;;;23.63;12.45;;;;;;;-139.48;100.00;61774.03;5035076;28;20107;-75
2022/03/02 07:35:08;;;;;;;25.02;14.45;;;;;;;-139.48;100.00;61774.03;5035247;28;20102;-74
2022/03/02 07:37:55;;;;;;;45.38;21.45;;;;;;;-139.48;100.00;61774.03;5020932;28;20524;-74
2022/03/02 07:40:39;;;;;;;41.97;22.00;;;;;;;-139.48;100.00;61774.03;5035068;28;20053;-74
2022/03/02 07:43:23;;;;;;;23.48;14.02;;;;;;;-139.48;100.00;61774.03;5035392;28;20048;-74
2022/03/02 07:46:09;;;;;;;20.60;11.65;;;;;;;-139.48;100.00;61774.03;5034918;28;20219;-74
2022/03/02 07:48:53;;;;;;;21.75;12.13;;;;;;;-139.48;100.00;61774.03;5034703;28;20130;-74
2022/03/02 07:51:38;;;;;;;29.48;13.52;;;;;;;-139.48;100.00;61774.03;5034691;28;20044;-73
2022/03/02 07:54:23;;;;;;;23.73;12.70;;;;;;;-139.48;100.00;61774.03;5021041;28;20098;-74
2022/03/02 07:57:09;;;;;;;23.95;13.93;;;;;;;-139.48;100.00;61774.03;5020699;28;20412;-74
2022/03/02 07:59:54;;;;;;;24.52;12.25;;;;;;;-139.48;100.00;61774.03;5035629;28;20056;-74
2022/03/02 08:02:40;;;;;;;23.58;12.38;;;;;;;-139.48;100.00;61774.03;5034758;28;20056;-74
2022/03/02 08:05:24;;;;;;;23.15;13.43;;;;;;;-139.48;100.00;61774.03;5034737;28;20405;-74
2022/03/02 08:08:10;;;;;;;22.70;12.30;;;;;;;-139.48;100.00;61774.03;5034529;28;20056;-74
2022/03/02 08:10:55;;;;;;;24.75;12.32;;;;;;;-139.48;100.00;61774.03;5034595;28;20056;-74
2022/03/02 08:13:40;;;;;;;20.70;12.07;;;;;;;-139.48;100.00;61774.03;5020542;28;20060;-75
2022/03/02 08:16:27;;;;;;;20.00;11.90;;;;;;;-139.48;100.00;61774.03;5034172;28;20084;-75
2022/03/02 08:19:11;;;;;;;28.63;13.55;;;;;;;-139.48;100.00;61774.03;5090841;22;20111;-74
2022/03/02 08:21:57;;;;;;;19.92;11.90;;;;;;;-139.48;100.00;61774.03;4994938;28;20144;-75
2022/03/02 08:24:46;;;;;;;25.67;13.05;;;;;;;-139.48;100.00;61774.03;4967626;28;20438;-74
2022/03/02 08:27:30;;;;;;;17.95;11.32;;;;;;;-139.48;100.00;61774.03;4994653;28;20108;-74
2022/03/02 08:30:15;;;;;;;;;;;;;;;-139.48;100.00;61774.03;4996220;28;20108;-74
2022/03/02 08:32:59;;;;;;;;;;;;;;;-139.48;100.00;61774.03;4995149;28;19921;-74
2022/03/02 08:35:43;;;;;;;23.63;12.13;;;;;;;-139.48;100.00;61774.03;4994276;28;19923;-75
2022/03/02 08:38:26;;;;;;;17.42;11.02;;;;;;;-139.48;100.00;61774.03;4995001;28;20069;-74
2022/03/02 08:41:11;;;;;;;23.50;12.07;;;;;;;-139.48;100.00;61774.03;4980839;28;20467;-74
2022/03/02 08:43:57;;;;;;;15.93;10.82;;;;;;;-139.48;100.00;61774.03;4995491;28;20469;-75
2022/03/02 08:46:44;;;;;;;20.38;11.57;;;;;;;-139.48;100.00;61774.03;4995495;28;20069;-74
2022/03/02 08:49:28;;;;;;;21.52;12.18;;;;;;;-139.48;100.00;61774.03;4995358;28;20052;-74
2022/03/02 08:52:12;;;;;;;20.13;12.77;;;;;;;-139.48;100.00;61774.03;4994360;28;20576;-75
2022/03/02 08:54:56;;;;;;;20.25;11.95;;;;;;;-139.48;100.00;61774.03;4994101;28;20513;-75
2022/03/02 08:57:42;;;;;;;24.17;12.00;;;;;;;-139.48;100.00;61774.03;4995407;28;20041;-75
2022/03/02 09:00:26;;;;;;;22.40;12.25;;;;;;;-139.48;100.00;61774.03;4993971;28;20162;-75
2022/03/02 09:03:14;;;;;;;17.30;11.20;;;;;;;-139.48;100.00;61774.03;4994247;28;20061;-75
2022/03/02 09:06:00;;;;;;;18.85;10.73;;;;;;;-139.48;100.00;61774.03;4994119;28;20061;-74
2022/03/02 09:08:44;;;;;;;21.38;11.90;;;;;;;-139.48;100.00;61774.03;4994213;28;20065;-74
2022/03/02 09:11:28;;;;;;;19.60;11.95;;;;;;;-139.48;100.00;61774.03;4994930;28;20443;-75
2022/03/02 09:14:12;;;;;;;18.65;11.52;;;;;;;-139.48;100.00;61774.03;4993872;28;20061;-75
2022/03/02 09:16:56;;;;;;;19.73;11.15;;;;;;;-139.48;100.00;61774.03;4993981;28;20176;-74
2022/03/02 09:19:40;;;;;;;19.10;11.68;;;;;;;-139.48;100.00;61774.03;4993467;28;20372;-74
2022/03/02 09:22:25;;;;;;;19.35;12.20;;;;;;;-139.48;100.00;61774.03;4993706;28;20061;-73
2022/03/02 09:25:10;;;;;;;21.27;12.25;;;;;;;-139.48;100.00;61774.03;4995074;28;20189;-73
2022/03/02 09:27:55;;;;;;;21.20;11.85;;;;;;;-139.48;100.00;61774.03;4993649;28;20441;-72
2022/03/02 09:30:40;;;;;;;21.98;12.43;;;;;;;-139.48;100.00;61774.03;4979638;28;20490;-75
2022/03/02 09:33:24;;;;;;;19.52;12.18;;;;;;;-139.48;100.00;61774.03;4980237;28;20049;-74
2022/03/02 09:36:10;;;;;;;20.88;12.30;;;;;;;-139.48;100.00;61774.03;4993558;28;20045;-74
2022/03/02 09:38:55;;;;;;;21.45;12.82;;;;;;;-139.48;100.00;61774.03;4993489;28;20104;-74
2022/03/02 09:41:51;;;;;;;19.48;10.88;;;;;;;-139.48;100.00;61774.03;4994397;28;20120;-73
2022/03/02 09:44:41;;;;;;;20.88;12.18;;;;;;;-139.48;100.00;61774.03;4993522;28;20052;-73
2022/03/02 09:47:50;;;;;;;21.48;12.15;;;;;;;-139.48;100.00;61774.03;4992573;28;20169;-74
2022/03/02 09:50:36;;;;;;;21.25;11.88;;;;;;;-139.48;100.00;61774.03;4993450;28;20213;-74
2022/03/02 09:53:21;;;;;;;21.90;12.77;;;;;;;-139.48;100.00;61774.03;4993377;28;20461;-72
2022/03/02 09:56:06;;;;;;;24.17;12.38;;;;;;;-139.48;100.00;61774.03;4993261;28;20044;-74
2022/03/02 09:58:53;;;;;;;22.35;12.93;;;;;;;-139.48;100.00;61774.03;4993138;28;20049;-74
2022/03/02 10:01:38;;;;;;;21.08;12.77;;;;;;;-139.48;100.00;61774.03;4979360;28;20088;-74
2022/03/02 10:04:26;;;;;;;22.13;13.57;;;;;;;-139.48;100.00;61774.03;4992926;28;20501;-74
2022/03/02 10:07:29;;;;;;;28.65;17.83;;;;;;;-139.48;100.00;61774.03;4993068;28;20077;-74
2022/03/02 10:10:17;;;;;;;22.00;13.02;;;;;;;-139.48;100.00;61774.03;4993143;28;20053;-74
2022/03/02 10:13:10;;;;;;;32.78;21.05;;;;;;;-139.48;100.00;61774.03;4992988;28;20049;-74
2022/03/02 10:15:56;;;;;;;24.50;13.07;;;;;;;-139.48;100.00;61774.03;4993671;28;20076;-74
2022/03/02 10:18:41;;;;;;;22.95;13.07;;;;;;;-139.48;100.00;61774.03;4993116;28;20430;-73
2022/03/02 10:21:30;;;;;;;22.98;13.38;;;;;;;-139.48;100.00;61774.03;4978773;28;20469;-75
2022/03/02 10:24:19;;;;;;;27.88;19.17;;;;;;;-139.48;100.00;61774.03;4992679;28;20104;-75
2022/03/02 10:27:05;;;;;;;21.38;13.30;;;;;;;-139.48;100.00;61774.03;4992584;28;20041;-74
2022/03/02 10:30:01;;;;;;;20.88;13.48;;;;;;;-139.48;100.00;61774.03;4992649;28;20108;-74
2022/03/02 10:32:48;;;;;;;20.42;13.13;;;;;;;-139.48;100.00;61774.03;4993759;28;20374;-75
2022/03/02 10:35:38;;;;;;;22.58;12.63;;;;;;;-139.48;100.00;61774.03;4992570;28;20061;-75
2022/03/02 10:38:57;;;;;;;35.67;20.35;;;;;;;-139.48;100.00;61774.03;4992660;28;20096;-74
2022/03/02 10:41:43;;;;;;;18.80;12.95;;;;;;;-139.48;100.00;61774.03;4993605;28;20045;-74
2022/03/02 10:44:48;;;;;;;36.85;21.77;;;;;;;-139.48;100.00;61774.03;4993309;28;20104;-75
2022/03/02 10:47:33;;;;;;;;;;;;;;;-139.48;100.00;61774.03;4992914;28;20060;-74
2022/03/02 10:50:17;;;;;;;;;;;;;;;-139.48;100.00;61774.03;4992716;28;19924;-75
2022/03/02 10:53:04;;;;;;;28.57;17.40;;;;;;;-139.48;100.00;61774.03;4992184;28;20005;-75
2022/03/02 10:55:48;;;;;;;27.73;16.60;;;;;;;-139.48;100.00;61774.03;4992111;28;20069;-74
2022/03/02 10:58:34;;;;;;;30.45;17.92;;;;;;;-139.48;100.00;61774.03;4994365;28;20053;-74
2022/03/02 11:01:19;;;;;;;32.92;21.25;;;;;;;-139.48;100.00;61774.03;4997487;28;20506;-74
2022/03/02 11:04:06;;;;;;;38.38;26.13;;;;;;;-139.48;100.00;61774.03;4996283;28;20100;-74
2022/03/02 11:06:53;;;;;;;26.10;15.80;;;;;;;-139.48;100.00;61774.03;4996234;28;20041;-74
2022/03/02 11:09:37;;;;;;;43.85;32.78;;;;;;;-139.48;100.00;61774.03;4982551;28;20049;-74
2022/03/02 11:12:22;;;;;;;30.85;22.77;;;;;;;-139.48;100.00;61774.03;4997118;28;20065;-75
2022/03/02 11:15:07;;;;;;;29.02;18.20;;;;;;;-139.48;100.00;61774.03;4982478;28;20049;-75
2022/03/02 11:17:53;;;;;;;21.23;14.15;;;;;;;-139.48;100.00;61774.03;4996211;28;20045;-75
2022/03/02 11:20:37;;;;;;;24.52;15.40;;;;;;;-139.48;100.00;61774.03;4995756;28;20452;-74
2022/03/02 11:23:24;;;;;;;18.40;13.40;;;;;;;-139.48;100.00;61774.03;4996102;28;20045;-72
2022/03/02 11:26:30;;;;;;;17.77;12.07;;;;;;;-139.48;100.00;61774.03;4995965;28;20040;-74
2022/03/02 11:29:16;;;;;;;18.48;12.65;;;;;;;-139.48;100.00;61774.03;5009820;28;20386;-74
2022/03/02 11:32:11;;;;;;;23.63;16.90;;;;;;;-139.48;100.00;61774.03;4995984;28;20064;-74
2022/03/02 11:34:57;;;;;;;17.88;13.13;;;;;;;-139.48;100.00;61774.03;4995875;28;20096;-73
2022/03/02 11:37:42;;;;;;;19.17;14.07;;;;;;;-139.48;100.00;61774.03;4996175;28;20197;-74
2022/03/02 11:40:45;;;;;;;17.50;12.93;;;;;;;-139.48;100.00;61774.03;4995533;28;20564;-74
2022/03/02 11:43:30;;;;;;;19.90;14.35;;;;;;;-139.48;100.00;61774.03;4995719;28;20085;-74
2022/03/02 11:46:15;;;;;;;20.33;12.75;;;;;;;-139.48;100.00;61774.03;4996554;28;20088;-74
2022/03/02 11:49:04;;;;;;;18.58;12.10;;;;;;;-139.48;100.00;61774.03;4995278;28;20049;-74
2022/03/02 11:52:04;;;;;;;21.17;13.05;;;;;;;-139.48;100.00;61774.03;4996527;28;20409;-74
2022/03/02 11:54:52;;;;;;;17.98;12.88;;;;;;;-139.48;100.00;61774.03;4981476;28;20049;-74
2022/03/02 11:57:48;;;;;;;26.95;18.52;;;;;;;-139.48;100.00;61774.03;4995193;28;20049;-74
2022/03/02 12:00:32;;;;;;;17.35;12.55;;;;;;;-139.48;100.00;61774.03;4996031;28;20525;-74
2022/03/02 12:03:16;;;;;;;22.52;16.52;;;;;;;-139.48;100.00;61774.03;4995277;28;20610;-74
2022/03/02 12:06:05;;;;;;;20.98;14.30;;;;;;;-139.48;100.00;61774.03;4996261;28;20048;-74
2022/03/02 12:08:54;;;;;;;22.65;16.42;;;;;;;-139.48;100.00;61774.03;4994943;28;20053;-74
2022/03/02 12:11:38;;;;;;;23.52;14.85;;;;;;;-139.48;100.00;61774.03;4994978;28;20129;-74
2022/03/02 12:14:22;;;;;;;20.27;12.60;;;;;;;-139.48;100.00;61774.03;4995896;28;20054;-73
2022/03/02 12:17:12;;;;;;;;;;;;;;;-139.48;100.00;61774.03;4995442;28;20165;-74
2022/03/02 12:19:58;;;;;;;21.83;14.27;;;;;;;-139.48;100.00;61774.03;4995646;28;20285;-73
2022/03/02 12:22:44;;;;;;;32.28;24.38;;;;;;;-139.48;100.00;61774.03;4995138;28;20590;-74
2022/03/02 12:25:28;;;;;;;29.38;16.70;;;;;;;-139.48;100.00;61774.03;4995716;28;20052;-74